createdAt,value
2018-08-31T00:01:35.164Z,91.4
2018-08-31T00:02:05.793Z,91.4
2018-08-31T00:02:36.091Z,91.6
2018-08-31T00:03:06.710Z,91.6
2018-08-31T00:05:31.990Z,92.6
2018-08-31T00:06:31.419Z,92.3
2018-08-31T00:07:30.625Z,92.3
2018-08-31T00:08:29.941Z,92.3
2018-08-31T00:09:29.251Z,92.3
2018-08-31T00:11:27.742Z,92.2
2018-08-31T00:12:26.962Z,92.3
2018-08-31T00:15:24.938Z,92.4
2018-08-31T00:16:24.028Z,92.5
2018-08-31T00:17:23.223Z,92.6
2018-08-31T00:18:22.642Z,92.6
2018-08-31T00:19:22.062Z,92.7
2018-08-31T00:20:21.267Z,92.7
2018-08-31T00:21:20.585Z,92.8
2018-08-31T00:22:19.788Z,92.9
2018-08-31T00:23:18.778Z,93.1
2018-08-31T00:27:16.246Z,93.2
2018-08-31T00:28:15.165Z,93
2018-08-31T00:29:14.473Z,93.3
2018-08-31T00:30:13.826Z,93.3
2018-08-31T00:31:13.137Z,93.3
2018-08-31T00:33:11.613Z,93.4
2018-08-31T00:35:10.405Z,93.5
2018-08-31T00:36:09.498Z,93.4
2018-08-31T00:37:08.804Z,93.5
2018-08-31T00:38:08.005Z,93.6
2018-08-31T00:39:07.120Z,93.7
2018-08-31T00:40:06.316Z,93.6
2018-08-31T00:42:04.906Z,93.6
2018-08-31T00:43:04.221Z,93.7
2018-08-31T00:45:02.910Z,93.7
2018-08-31T00:46:02.112Z,93.6
2018-08-31T00:47:01.321Z,93.4
2018-08-31T00:49:00.020Z,93.2
2018-08-31T00:50:58.337Z,92.3
2018-08-31T00:51:57.764Z,92.3
2018-08-31T00:53:55.953Z,92.3
2018-08-31T00:54:55.266Z,92
2018-08-31T00:56:53.970Z,91.8
2018-08-31T00:57:53.347Z,91.7
2018-08-31T00:58:52.579Z,91.9
2018-08-31T00:59:22.992Z,91.9
2018-08-31T01:01:50.382Z,91.7
2018-08-31T01:03:48.871Z,91.5
2018-08-31T01:04:48.284Z,91.5
2018-08-31T01:05:47.486Z,91.5
2018-08-31T01:06:46.688Z,91.6
2018-08-31T01:07:45.683Z,91.7
2018-08-31T01:09:44.538Z,91.6
2018-08-31T01:11:42.623Z,91.5
2018-08-31T01:12:42.221Z,91.5
2018-08-31T01:14:40.302Z,91.5
2018-08-31T01:16:38.903Z,91.5
2018-08-31T01:17:38.315Z,91.5
2018-08-31T01:18:37.726Z,91.4
2018-08-31T01:20:36.313Z,91.6
2018-08-31T01:21:35.408Z,91.6
2018-08-31T01:23:34.103Z,91.4
2018-08-31T01:24:33.409Z,91.4
2018-08-31T01:25:32.601Z,91.4
2018-08-31T01:26:31.317Z,91.6
2018-08-31T01:27:31.021Z,91.4
2018-08-31T01:28:30.217Z,91.4
2018-08-31T01:29:29.631Z,91.4
2018-08-31T01:30:28.838Z,91.2
2018-08-31T01:31:28.150Z,91.2
2018-08-31T01:32:26.951Z,91.4
2018-08-31T01:35:25.164Z,91.4
2018-08-31T01:36:23.972Z,91.3
2018-08-31T01:37:23.279Z,91.2
2018-08-31T01:40:19.734Z,91.3
2018-08-31T01:41:20.242Z,91.2
2018-08-31T01:41:50.880Z,91.2
2018-08-31T01:42:21.518Z,91.2
2018-08-31T01:44:17.996Z,91.2
2018-08-31T01:45:17.314Z,91
2018-08-31T01:46:16.625Z,90.7
2018-08-31T01:48:15.223Z,90.4
2018-08-31T01:49:14.676Z,90.4
2018-08-31T01:50:13.778Z,90.4
2018-08-31T01:50:44.009Z,90.4
2018-08-31T01:51:14.539Z,90.4
2018-08-31T01:51:45.224Z,90.4
2018-08-31T01:52:15.469Z,90.4
2018-08-31T01:52:46.115Z,90.4
2018-08-31T01:54:10.696Z,90.5
2018-08-31T01:57:08.380Z,90.6
2018-08-31T01:58:07.698Z,90.6
2018-08-31T01:59:06.917Z,90.7
2018-08-31T02:00:06.132Z,90.5
2018-08-31T02:02:04.732Z,90.7
2018-08-31T02:03:03.953Z,90.8
2018-08-31T02:04:03.252Z,90.8
2018-08-31T02:05:02.221Z,90.8
2018-08-31T02:06:01.830Z,90.7
2018-08-31T02:07:01.150Z,90.8
2018-08-31T02:07:59.973Z,90.7
2018-08-31T02:08:59.307Z,90.8
2018-08-31T02:09:58.521Z,90.7
2018-08-31T02:10:57.732Z,90.9
2018-08-31T02:11:56.942Z,90.8
2018-08-31T02:12:56.657Z,90.7
2018-08-31T02:13:55.463Z,90.6
2018-08-31T02:15:54.069Z,90.6
2018-08-31T02:16:53.161Z,90.7
2018-08-31T02:18:51.974Z,90.7
2018-08-31T02:19:51.078Z,90.7
2018-08-31T02:20:21.809Z,90.7
2018-08-31T02:20:52.327Z,90.5
2018-08-31T02:21:22.971Z,90.5
2018-08-31T02:21:53.607Z,90.5
2018-08-31T02:22:24.135Z,90.5
2018-08-31T02:22:54.769Z,90.5
2018-08-31T02:23:25.010Z,90.5
2018-08-31T02:24:47.590Z,90.4
2018-08-31T02:25:46.400Z,90.3
2018-08-31T02:26:45.607Z,90.3
2018-08-31T02:27:45.328Z,90.3
2018-08-31T02:28:44.032Z,90.4
2018-08-31T02:29:43.549Z,90.8
2018-08-31T02:30:42.869Z,90.6
2018-08-31T02:31:42.188Z,90.2
2018-08-31T02:32:12.823Z,90.2
2018-08-31T02:32:43.469Z,90.2
2018-08-31T02:33:14.107Z,90.2
2018-08-31T02:33:44.244Z,90.2
2018-08-31T02:34:14.763Z,90.2
2018-08-31T02:34:45.395Z,90.4
2018-08-31T02:36:38.367Z,90.3
2018-08-31T02:37:37.681Z,90.2
2018-08-31T02:38:37.000Z,90.2
2018-08-31T02:39:36.216Z,90
2018-08-31T02:40:35.094Z,89.9
2018-08-31T02:44:32.069Z,90.4
2018-08-31T02:45:31.383Z,90.4
2018-08-31T02:46:30.819Z,90.4
2018-08-31T02:48:29.410Z,90.3
2018-08-31T02:49:28.214Z,90.4
2018-08-31T02:50:27.524Z,90.4
2018-08-31T02:51:26.738Z,90.4
2018-08-31T02:52:26.415Z,90.6
2018-08-31T02:53:25.243Z,90.5
2018-08-31T02:55:23.727Z,90.4
2018-08-31T02:56:23.153Z,90.4
2018-08-31T02:57:22.463Z,90.5
2018-08-31T02:58:21.780Z,90.5
2018-08-31T02:59:20.993Z,90.5
2018-08-31T03:00:19.794Z,90.6
2018-08-31T03:01:19.103Z,90.5
2018-08-31T03:02:18.564Z,90.5
2018-08-31T03:03:18.004Z,90.6
2018-08-31T03:04:16.916Z,90.6
2018-08-31T03:05:16.138Z,90.7
2018-08-31T03:06:15.565Z,90.5
2018-08-31T03:07:14.477Z,90.6
2018-08-31T03:08:13.898Z,90.6
2018-08-31T03:09:13.105Z,90.6
2018-08-31T03:10:12.411Z,90.6
2018-08-31T03:11:11.723Z,90.7
2018-08-31T03:12:11.035Z,90.6
2018-08-31T03:13:10.246Z,90.7
2018-08-31T03:14:09.561Z,90.6
2018-08-31T03:15:08.360Z,90.6
2018-08-31T03:17:07.060Z,90.2
2018-08-31T03:18:06.261Z,90.2
2018-08-31T03:18:36.670Z,90.2
2018-08-31T03:19:07.190Z,90.2
2018-08-31T03:19:37.439Z,90.2
2018-08-31T03:20:08.075Z,90
2018-08-31T03:23:02.633Z,90.5
2018-08-31T03:24:01.729Z,90.4
2018-08-31T03:25:00.722Z,90.4
2018-08-31T03:26:59.314Z,90.5
2018-08-31T03:27:58.742Z,90.5
2018-08-31T03:28:29.253Z,90.5
2018-08-31T03:28:59.886Z,90.5
2018-08-31T03:29:30.411Z,90.5
2018-08-31T03:30:56.514Z,89.9
2018-08-31T03:31:55.222Z,89.1
2018-08-31T03:32:54.641Z,89.5
2018-08-31T03:33:53.951Z,89.7
2018-08-31T03:34:53.260Z,89.8
2018-08-31T03:36:51.365Z,90
2018-08-31T03:37:50.795Z,89.9
2018-08-31T03:38:50.008Z,89.7
2018-08-31T03:39:49.326Z,89.7
2018-08-31T03:40:48.649Z,89.6
2018-08-31T03:41:47.974Z,89.8
2018-08-31T03:42:47.070Z,89.8
2018-08-31T03:45:44.944Z,90.1
2018-08-31T03:46:43.649Z,89.9
2018-08-31T03:47:43.078Z,89.8
2018-08-31T03:48:42.178Z,89.8
2018-08-31T03:49:41.500Z,89.9
2018-08-31T03:50:40.817Z,89.9
2018-08-31T03:51:40.132Z,90.1
2018-08-31T03:52:39.333Z,90
2018-08-31T03:53:38.589Z,90
2018-08-31T03:55:37.281Z,90.1
2018-08-31T03:58:34.866Z,89.8
2018-08-31T03:59:05.097Z,89.8
2018-08-31T03:59:35.644Z,89.8
2018-08-31T04:00:06.268Z,89.8
2018-08-31T04:01:32.255Z,89.7
2018-08-31T04:02:31.665Z,89.9
2018-08-31T04:04:29.974Z,89.9
2018-08-31T04:05:29.182Z,89.5
2018-08-31T04:06:28.494Z,89.5
2018-08-31T04:07:27.808Z,89.5
2018-08-31T04:07:58.049Z,89.5
2018-08-31T04:08:28.473Z,89.5
2018-08-31T04:08:58.716Z,89.5
2018-08-31T04:09:29.237Z,89.5
2018-08-31T04:09:59.752Z,89.5
2018-08-31T04:10:30.368Z,89.5
2018-08-31T04:11:00.887Z,89.5
2018-08-31T04:13:23.031Z,90.1
2018-08-31T04:14:22.360Z,89.9
2018-08-31T04:15:21.675Z,89.9
2018-08-31T04:16:20.887Z,89.7
2018-08-31T04:17:19.818Z,89.6
2018-08-31T04:18:19.038Z,89.5
2018-08-31T04:19:18.461Z,89.5
2018-08-31T04:20:17.780Z,89.3
2018-08-31T04:21:16.695Z,89.2
2018-08-31T04:25:13.565Z,89.5
2018-08-31T04:27:12.047Z,89.3
2018-08-31T04:28:11.302Z,89.1
2018-08-31T04:29:10.617Z,89.3
2018-08-31T04:30:09.934Z,89.3
2018-08-31T04:32:08.534Z,89.1
2018-08-31T04:33:07.348Z,89.2
2018-08-31T04:34:06.593Z,89.2
2018-08-31T04:35:06.038Z,89.3
2018-08-31T04:36:05.364Z,89.6
2018-08-31T04:42:00.407Z,88.8
2018-08-31T04:45:57.272Z,88.9
2018-08-31T04:46:56.689Z,88.8
2018-08-31T04:47:55.909Z,88.8
2018-08-31T04:49:54.219Z,88.7
2018-08-31T04:50:24.907Z,88.7
2018-08-31T04:50:55.406Z,88.6
2018-08-31T04:51:25.942Z,88.6
2018-08-31T04:52:51.827Z,88.5
2018-08-31T04:53:51.141Z,88.6
2018-08-31T04:55:49.953Z,88.4
2018-08-31T04:56:48.779Z,88.5
2018-08-31T04:59:46.475Z,88.3
2018-08-31T05:04:42.887Z,87.9
2018-08-31T05:15:34.156Z,86.7
2018-08-31T05:16:33.573Z,86.9
2018-08-31T05:18:31.955Z,86.6
2018-08-31T05:22:28.631Z,85.9
2018-08-31T05:25:26.449Z,86.1
2018-08-31T05:26:25.657Z,86.1
2018-08-31T05:27:24.756Z,86.1
2018-08-31T05:30:22.724Z,86.2
2018-08-31T05:31:21.534Z,86.2
2018-08-31T05:32:20.872Z,86.2
2018-08-31T05:34:19.474Z,85.3
2018-08-31T05:36:17.669Z,85.6
2018-08-31T05:36:48.078Z,85.6
2018-08-31T05:37:18.300Z,85.8
2018-08-31T05:38:16.501Z,85.8
2018-08-31T05:39:15.445Z,85.7
2018-08-31T05:40:14.758Z,85
2018-08-31T05:42:12.957Z,84.4
2018-08-31T05:43:12.261Z,84.4
2018-08-31T05:44:11.861Z,84.7
2018-08-31T05:46:09.948Z,84.5
2018-08-31T05:49:07.817Z,84.6
2018-08-31T05:51:06.114Z,83.8
2018-08-31T05:52:05.315Z,83.6
2018-08-31T05:53:04.740Z,83.3
2018-08-31T05:56:02.432Z,83.4
2018-08-31T05:57:01.739Z,83.4
2018-08-31T05:58:00.837Z,83.1
2018-08-31T05:59:00.163Z,83.2
2018-08-31T06:00:58.465Z,82.3
2018-08-31T06:01:57.808Z,82.6
2018-08-31T06:02:57.024Z,82.2
2018-08-31T06:04:55.344Z,81.9
2018-08-31T06:05:54.547Z,81.8
2018-08-31T06:06:53.863Z,81.2
2018-08-31T06:07:53.080Z,80.9
2018-08-31T06:08:52.501Z,81.4
2018-08-31T06:10:50.989Z,80.9
2018-08-31T06:11:50.065Z,80.9
2018-08-31T06:12:49.300Z,81.3
2018-08-31T06:14:48.114Z,81.5
2018-08-31T06:15:46.826Z,81.4
2018-08-31T06:16:17.240Z,81.4
2018-08-31T06:17:45.633Z,81.1
2018-08-31T06:18:16.149Z,81.1
2018-08-31T06:22:41.697Z,80.5
2018-08-31T06:23:40.904Z,80.6
2018-08-31T06:25:39.497Z,80.2
2018-08-31T06:26:38.913Z,80.2
2018-08-31T06:27:09.686Z,80.2
2018-08-31T06:27:39.867Z,80.7
2018-08-31T06:28:10.504Z,80.7
2018-08-31T06:28:41.032Z,81.1
2018-08-31T06:29:11.667Z,81.1
2018-08-31T06:33:33.702Z,78.8
2018-08-31T06:34:32.404Z,79.5
2018-08-31T06:35:31.731Z,79.5
2018-08-31T06:36:31.057Z,79.8
2018-08-31T06:37:30.474Z,80.2
2018-08-31T06:38:29.912Z,79.5
2018-08-31T06:40:27.908Z,78.9
2018-08-31T06:41:27.209Z,79.4
2018-08-31T06:42:26.513Z,79.2
2018-08-31T06:43:26.126Z,79.2
2018-08-31T06:44:25.118Z,79
2018-08-31T06:45:24.245Z,78.9
2018-08-31T06:46:23.452Z,78.5
2018-08-31T06:47:22.552Z,79
2018-08-31T06:48:21.985Z,79.5
2018-08-31T06:49:21.406Z,79.6
2018-08-31T06:50:20.718Z,79.5
2018-08-31T06:51:19.913Z,79.7
2018-08-31T06:52:18.895Z,78.8
2018-08-31T06:53:18.313Z,78.5
2018-08-31T06:54:17.728Z,78.9
2018-08-31T06:56:15.815Z,78.8
2018-08-31T06:57:15.319Z,79
2018-08-31T07:02:11.780Z,78.5
2018-08-31T07:03:10.475Z,78.6
2018-08-31T07:04:10.187Z,78.8
2018-08-31T07:06:08.492Z,77.1
2018-08-31T07:07:07.714Z,77.6
2018-08-31T07:11:04.994Z,77
2018-08-31T07:12:03.907Z,76.9
2018-08-31T07:16:00.894Z,77.1
2018-08-31T07:17:00.501Z,77.4
2018-08-31T07:26:53.114Z,76
2018-08-31T07:27:51.896Z,75.8
2018-08-31T07:30:49.880Z,76.4
2018-08-31T07:34:46.747Z,74.2
2018-08-31T07:48:36.483Z,73.1
2018-08-31T07:51:33.962Z,72.8
2018-08-31T07:55:31.545Z,71.7
2018-08-31T08:00:27.802Z,71.4
2018-08-31T08:09:21.214Z,71.8
2018-08-31T08:12:18.922Z,72.2
2018-08-31T08:13:18.130Z,72.3
2018-08-31T08:16:16.113Z,73.2
2018-08-31T08:34:03.005Z,69.8
2018-08-31T08:38:00.079Z,68.2
2018-08-31T08:38:59.293Z,68.7
2018-08-31T08:40:57.619Z,68.8
2018-08-31T08:44:55.102Z,67.3
2018-08-31T08:47:52.808Z,67.7
2018-08-31T08:48:23.173Z,67.7
2018-08-31T08:50:50.549Z,67.9
2018-08-31T09:06:39.069Z,67.2
2018-08-31T09:48:09.368Z,61.4
2018-08-31T09:57:02.735Z,59
2018-08-31T10:02:58.780Z,60.9
2018-08-31T10:03:58.099Z,60.8
2018-08-31T10:04:57.517Z,60.7
2018-08-31T10:05:56.623Z,59.7
2018-08-31T10:18:47.689Z,56.6
2018-08-31T10:22:44.637Z,56.1
2018-08-31T10:37:34.369Z,55.1
2018-08-31T10:45:28.843Z,53.9
2018-08-31T11:00:18.576Z,53.1
2018-08-31T11:05:15.241Z,51
2018-08-31T12:23:23.285Z,45
2018-08-31T13:20:47.894Z,37.7
2018-08-31T13:33:40.252Z,39.8
2018-08-31T13:35:38.955Z,39
2018-08-31T13:36:38.267Z,38.8
2018-08-31T13:37:38.089Z,40.3
2018-08-31T13:39:36.795Z,38.4
2018-08-31T13:40:36.120Z,39.6
2018-08-31T13:41:35.730Z,38.6
2018-08-31T13:42:35.035Z,38.7
2018-08-31T13:44:33.633Z,40.1
2018-08-31T13:46:32.726Z,40.6
2018-08-31T13:47:32.334Z,40.7
2018-08-31T13:48:31.545Z,40.3
2018-08-31T13:50:30.245Z,39.5
2018-08-31T13:51:29.574Z,40.5
2018-08-31T13:52:29.066Z,40.5
2018-08-31T13:53:28.557Z,38.6
2018-08-31T13:54:28.051Z,38.7
2018-08-31T13:55:27.474Z,38.2
2018-08-31T13:55:57.701Z,38.2
2018-08-31T13:57:26.302Z,38.4
2018-08-31T13:57:56.931Z,38.4
2018-08-31T13:58:27.570Z,38.6
2018-08-31T13:58:57.602Z,38.6
2018-08-31T13:59:28.239Z,38.4
2018-08-31T13:59:58.475Z,38.4
2018-08-31T14:01:23.740Z,37.9
2018-08-31T14:04:22.456Z,37.8
2018-08-31T14:05:21.880Z,38
2018-08-31T14:06:21.201Z,38.2
2018-08-31T14:08:20.190Z,38.4
2018-08-31T14:09:19.293Z,38.1
2018-08-31T14:10:19.137Z,38.2
2018-08-31T14:11:18.630Z,38.4
2018-08-31T14:13:17.439Z,39.1
2018-08-31T14:17:15.212Z,39.9
2018-08-31T14:21:12.890Z,40.3
2018-08-31T14:31:07.083Z,40.6
2018-08-31T14:38:02.613Z,41.4
2018-08-31T14:45:58.045Z,40.1
2018-08-31T14:46:57.862Z,40.8
2018-08-31T14:47:57.170Z,40.3
2018-08-31T14:51:54.445Z,40.4
2018-08-31T15:04:47.007Z,40
2018-08-31T15:08:44.906Z,40.4
2018-08-31T15:09:44.254Z,41
2018-08-31T15:10:43.671Z,40.1
2018-08-31T15:13:41.652Z,40.7
2018-08-31T15:16:40.354Z,40.4
2018-08-31T15:19:38.444Z,40.6
2018-08-31T15:20:37.881Z,39.8
2018-08-31T15:22:36.687Z,39.8
2018-08-31T15:23:36.440Z,39.7
2018-08-31T15:24:35.467Z,39.4
2018-08-31T15:25:35.258Z,38.8
2018-08-31T15:27:33.743Z,38.8
2018-08-31T15:28:33.058Z,39.3
2018-08-31T15:29:32.485Z,40
2018-08-31T15:30:31.900Z,39.7
2018-08-31T15:31:31.463Z,39.2
2018-08-31T15:32:30.660Z,39.1
2018-08-31T15:33:29.978Z,39.6
2018-08-31T15:34:29.299Z,40
2018-08-31T15:35:29.011Z,40.1
2018-08-31T15:37:27.714Z,40.2
2018-08-31T15:37:58.334Z,40.2
2018-08-31T15:38:28.561Z,40.2
2018-08-31T15:38:58.691Z,40.2
2018-08-31T15:39:29.208Z,42.1
2018-08-31T15:39:59.831Z,42.1
2018-08-31T15:41:25.207Z,40.8
2018-08-31T15:42:24.628Z,40.6
2018-08-31T15:44:23.333Z,41
2018-08-31T15:45:23.148Z,40.9
2018-08-31T15:49:20.517Z,40.8
2018-08-31T15:50:19.622Z,40.8
2018-08-31T15:51:19.096Z,41.7
2018-08-31T15:53:18.090Z,41.4
2018-08-31T15:55:16.903Z,40.6
2018-08-31T15:56:16.141Z,40.2
2018-08-31T15:57:15.742Z,40
2018-08-31T15:58:15.063Z,40.6
2018-08-31T15:59:14.273Z,39.5
2018-08-31T16:00:13.871Z,40
2018-08-31T16:01:13.080Z,39.9
2018-08-31T16:03:11.672Z,39.9
2018-08-31T16:04:11.094Z,40
2018-08-31T16:05:10.800Z,40.6
2018-08-31T16:06:10.130Z,40.4
2018-08-31T16:07:09.232Z,39.6
2018-08-31T16:08:08.945Z,39.7
2018-08-31T16:09:07.984Z,39.8
2018-08-31T16:10:07.346Z,40.5
2018-08-31T16:13:05.725Z,39.4
2018-08-31T16:14:05.039Z,39.3
2018-08-31T16:15:04.351Z,39.3
2018-08-31T16:16:04.073Z,39.5
2018-08-31T16:17:03.277Z,39.5
2018-08-31T16:19:02.004Z,39.9
2018-08-31T16:19:32.594Z,39.9
2018-08-31T16:20:03.216Z,40.2
2018-08-31T16:20:33.631Z,40.2
2018-08-31T16:21:04.152Z,40.6
2018-08-31T16:21:34.785Z,40.6
2018-08-31T16:22:05.013Z,41.2
2018-08-31T16:22:35.530Z,41.2
2018-08-31T16:23:58.796Z,42.3
2018-08-31T16:24:58.617Z,40.7
2018-08-31T16:25:57.430Z,40.6
2018-08-31T16:26:57.142Z,40.7
2018-08-31T16:27:56.749Z,40.9
2018-08-31T16:28:56.396Z,40.8
2018-08-31T16:29:55.095Z,41
2018-08-31T16:30:25.408Z,41
2018-08-31T16:30:56.140Z,41
2018-08-31T16:31:26.543Z,41
2018-08-31T16:31:57.168Z,41.1
2018-08-31T16:32:27.687Z,41.1
2018-08-31T16:33:52.954Z,41.1
2018-08-31T16:34:52.275Z,41.1
2018-08-31T16:35:51.585Z,41.2
2018-08-31T16:36:50.797Z,41.5
2018-08-31T16:37:50.107Z,41.1
2018-08-31T16:38:49.954Z,41.1
2018-08-31T16:41:47.986Z,40.9
2018-08-31T16:42:47.309Z,40.8
2018-08-31T16:43:46.625Z,41.1
2018-08-31T16:44:45.935Z,41.3
2018-08-31T16:45:45.254Z,41.6
2018-08-31T16:46:44.566Z,41.5
2018-08-31T16:47:43.881Z,41.8
2018-08-31T16:48:43.302Z,41.9
2018-08-31T16:49:42.621Z,42
2018-08-31T16:51:41.826Z,42
2018-08-31T16:52:41.034Z,42.4
2018-08-31T16:55:39.015Z,42.3
2018-08-31T16:56:38.333Z,41.7
2018-08-31T16:57:37.642Z,42
2018-08-31T16:58:36.971Z,42.2
2018-08-31T16:59:36.588Z,42.4
2018-08-31T17:01:35.393Z,42.8
2018-08-31T17:02:34.728Z,42.5
2018-08-31T17:03:34.037Z,42.7
2018-08-31T17:05:32.842Z,42.7
2018-08-31T17:06:32.055Z,42.9
2018-08-31T17:07:31.365Z,42.5
2018-08-31T17:08:30.575Z,42.9
2018-08-31T17:10:29.403Z,42.5
2018-08-31T17:11:29.212Z,42.9
2018-08-31T17:12:28.026Z,43
2018-08-31T17:13:27.631Z,43.1
2018-08-31T17:14:26.946Z,43.5
2018-08-31T17:15:26.660Z,43.6
2018-08-31T17:17:25.254Z,43.4
2018-08-31T17:18:24.683Z,43.7
2018-08-31T17:18:55.198Z,43.7
2018-08-31T17:21:22.483Z,44.5
2018-08-31T17:25:19.846Z,43.8
2018-08-31T17:26:19.237Z,44.2
2018-08-31T17:30:16.824Z,43.6
2018-08-31T17:31:16.032Z,43.7
2018-08-31T17:33:15.024Z,44.3
2018-08-31T17:37:12.496Z,43.6
2018-08-31T17:39:10.992Z,44
2018-08-31T17:44:07.876Z,45
2018-08-31T17:45:07.293Z,44.5
2018-08-31T17:46:06.618Z,44
2018-08-31T17:47:05.933Z,44.8
2018-08-31T17:48:05.351Z,44.8
2018-08-31T17:49:04.344Z,44.6
2018-08-31T17:50:04.054Z,44.5
2018-08-31T17:51:03.362Z,45.2
2018-08-31T17:53:01.955Z,44.8
2018-08-31T17:54:01.470Z,44.8
2018-08-31T17:55:00.677Z,45.3
2018-08-31T17:55:59.993Z,45.2
2018-08-31T17:56:59.298Z,45.2
2018-08-31T17:58:58.000Z,45.5
2018-08-31T17:59:28.412Z,45.5
2018-08-31T17:59:58.930Z,45.3
2018-08-31T18:00:29.457Z,45.3
2018-08-31T18:00:59.986Z,45.5
2018-08-31T18:01:30.393Z,45.5
2018-08-31T18:02:55.665Z,47.6
2018-08-31T18:04:54.472Z,47.9
2018-08-31T18:05:53.678Z,47.3
2018-08-31T18:09:51.332Z,47.3
2018-08-31T18:10:21.640Z,47.3
2018-08-31T18:10:52.389Z,48.6
2018-08-31T18:11:23.013Z,48.6
2018-08-31T18:11:53.530Z,49.2
2018-08-31T18:12:24.054Z,49.2
2018-08-31T18:12:54.684Z,46.6
2018-08-31T18:13:25.321Z,46.6
2018-08-31T18:15:47.091Z,48.6
2018-08-31T18:18:45.101Z,48.8
2018-08-31T18:19:44.312Z,48.8
2018-08-31T18:20:43.925Z,49
2018-08-31T18:22:42.519Z,49.8
2018-08-31T18:23:41.729Z,50.1
2018-08-31T18:24:41.150Z,50.2
2018-08-31T18:25:40.549Z,48.4
2018-08-31T18:26:39.562Z,49.8
2018-08-31T18:27:38.983Z,51.3
2018-08-31T18:28:38.295Z,51.9
2018-08-31T18:29:37.610Z,51.5
2018-08-31T18:30:37.034Z,50.3
2018-08-31T18:32:41.363Z,52.1
2018-08-31T18:33:35.046Z,52.3
2018-08-31T18:34:34.253Z,52.3
2018-08-31T18:37:32.460Z,52.8
2018-08-31T18:38:31.664Z,53.1
2018-08-31T18:39:30.865Z,53.4
2018-08-31T18:40:30.298Z,54.1
2018-08-31T18:41:29.444Z,53.5
2018-08-31T18:42:29.257Z,53.8
2018-08-31T18:43:28.186Z,53.9
2018-08-31T18:44:27.903Z,54.1
2018-08-31T18:45:26.868Z,54.2
2018-08-31T18:48:25.060Z,54.5
2018-08-31T18:49:24.383Z,54.6
2018-08-31T18:50:23.482Z,54.8
2018-08-31T18:52:22.327Z,55.1
2018-08-31T18:54:20.878Z,55.5
2018-08-31T18:55:20.086Z,55.6
2018-08-31T18:56:19.412Z,56
2018-08-31T18:57:18.624Z,56
2018-08-31T18:58:17.947Z,57.4
2018-08-31T18:59:17.257Z,56.9
2018-08-31T19:00:16.574Z,56.5
2018-08-31T19:01:15.778Z,56.5
2018-08-31T19:03:14.484Z,57.4
2018-08-31T19:04:13.790Z,57.4
2018-08-31T19:05:13.115Z,58.1
2018-08-31T19:06:12.441Z,59.1
2018-08-31T19:07:11.663Z,58.3
2018-08-31T19:12:08.139Z,59.3
2018-08-31T19:13:07.447Z,59.8
2018-08-31T19:14:06.773Z,60.9
2018-08-31T19:16:05.771Z,60.2
2018-08-31T19:17:04.606Z,60.8
2018-08-31T19:21:02.078Z,60.7
2018-08-31T19:22:01.504Z,61.5
2018-08-31T19:23:00.503Z,60.5
2018-08-31T19:23:59.712Z,61.2
2018-08-31T19:24:59.571Z,61.5
2018-08-31T19:25:58.240Z,60.7
2018-08-31T19:26:57.835Z,61.3
2018-08-31T19:27:57.287Z,61.1
2018-08-31T19:28:56.597Z,61.2
2018-08-31T19:29:55.504Z,62.3
2018-08-31T19:31:54.097Z,62.6
2018-08-31T19:33:52.811Z,62.1
2018-08-31T19:34:52.018Z,63
2018-08-31T19:35:51.333Z,63.9
2018-08-31T19:36:50.653Z,63.4
2018-08-31T19:37:49.964Z,63.3
2018-08-31T19:38:49.181Z,63.3
2018-08-31T19:39:19.590Z,63.3
2018-08-31T19:40:47.587Z,64
2018-08-31T19:41:47.083Z,63.8
2018-08-31T19:42:46.406Z,63.9
2018-08-31T19:45:44.097Z,64.5
2018-08-31T19:46:43.708Z,65.3
2018-08-31T19:48:42.178Z,65.1
2018-08-31T19:49:12.710Z,65.1
2018-08-31T19:50:40.714Z,64.7
2018-08-31T19:51:11.341Z,64.7
2018-08-31T19:52:39.347Z,64.9
2018-08-31T19:53:09.972Z,64.9
2018-08-31T19:53:40.406Z,64.9
2018-08-31T19:54:37.779Z,65
2018-08-31T19:55:36.986Z,66
2018-08-31T19:58:34.589Z,66.2
2018-08-31T19:59:33.801Z,66.4
2018-08-31T20:01:32.509Z,67.2
2018-08-31T20:02:31.951Z,66.7
2018-08-31T20:05:29.798Z,66.6
2018-08-31T20:07:28.003Z,67.4
2018-08-31T20:08:27.712Z,67.3
2018-08-31T20:10:26.015Z,67.3
2018-08-31T20:11:25.120Z,68.1
2018-08-31T20:13:24.044Z,68.1
2018-08-31T20:14:23.245Z,67.8
2018-08-31T20:15:22.446Z,67.8
2018-08-31T20:16:21.911Z,68.8
2018-08-31T20:17:20.947Z,68.8
2018-08-31T20:18:20.268Z,68.6
2018-08-31T20:19:19.185Z,68.7
2018-08-31T20:20:18.513Z,69
2018-08-31T20:21:17.723Z,68.9
2018-08-31T20:22:17.158Z,69
2018-08-31T20:25:15.140Z,69.7
2018-08-31T20:26:13.957Z,69.9
2018-08-31T20:27:13.266Z,69.7
2018-08-31T20:28:12.579Z,70.5
2018-08-31T20:30:11.344Z,71.1
2018-08-31T20:31:10.450Z,70.5
2018-08-31T20:31:40.966Z,70.5
2018-08-31T20:32:11.482Z,70.1
2018-08-31T20:32:42.103Z,70.1
2018-08-31T20:33:12.734Z,70.3
2018-08-31T20:33:43.358Z,70.3
2018-08-31T20:35:07.619Z,70.2
2018-08-31T20:37:05.819Z,71.3
2018-08-31T20:38:05.133Z,71.8
2018-08-31T20:39:04.441Z,71.3
2018-08-31T20:40:03.760Z,71
2018-08-31T20:42:02.243Z,71.9
2018-08-31T20:42:32.762Z,71.9
2018-08-31T20:43:03.449Z,71.7
2018-08-31T20:43:33.798Z,71.7
2018-08-31T20:45:00.183Z,73
2018-08-31T20:45:59.301Z,72.9
2018-08-31T20:47:57.403Z,73.4
2018-08-31T20:48:57.123Z,72.9
2018-08-31T20:49:56.084Z,73.3
2018-08-31T20:50:55.392Z,72.9
2018-08-31T20:51:54.951Z,72.9
2018-08-31T20:52:53.837Z,72.7
2018-08-31T20:53:53.159Z,72.9
2018-08-31T20:55:51.756Z,72.8
2018-08-31T20:56:51.074Z,72.7
2018-08-31T20:58:49.273Z,73.2
2018-08-31T20:59:48.580Z,73.1
2018-08-31T21:00:47.803Z,73.1
2018-08-31T21:01:46.904Z,73
2018-08-31T21:02:46.119Z,73.7
2018-08-31T21:03:45.545Z,73.4
2018-08-31T21:04:44.751Z,73.9
2018-08-31T21:05:44.063Z,73.8
2018-08-31T21:06:43.375Z,74.7
2018-08-31T21:07:42.686Z,74.8
2018-08-31T21:08:41.892Z,75.2
2018-08-31T21:09:12.517Z,75.2
2018-08-31T21:09:43.213Z,74.8
2018-08-31T21:12:38.880Z,74.9
2018-08-31T21:14:36.971Z,75.2
2018-08-31T21:15:36.692Z,75
2018-08-31T21:16:35.681Z,75
2018-08-31T21:17:34.894Z,75.4
2018-08-31T21:18:34.200Z,75.8
2018-08-31T21:19:33.609Z,75.2
2018-08-31T21:20:32.426Z,75.7
2018-08-31T21:21:31.737Z,76.4
2018-08-31T21:22:31.162Z,76.1
2018-08-31T21:23:30.283Z,75.8
2018-08-31T21:24:29.495Z,75.8
2018-08-31T21:25:28.593Z,76.1
2018-08-31T21:26:27.914Z,75.5
2018-08-31T21:27:27.345Z,75.5
2018-08-31T21:28:26.258Z,76.2
2018-08-31T21:28:56.887Z,76.2
2018-08-31T21:30:24.775Z,76.2
2018-08-31T21:31:24.038Z,76.7
2018-08-31T21:33:22.714Z,76.8
2018-08-31T21:34:22.032Z,76.7
2018-08-31T21:35:21.247Z,77.4
2018-08-31T21:36:20.167Z,77.3
2018-08-31T21:37:19.481Z,77.1
2018-08-31T21:38:18.694Z,77
2018-08-31T21:40:17.281Z,77.3
2018-08-31T21:41:16.485Z,77.5
2018-08-31T21:42:16.095Z,77.7
2018-08-31T21:43:15.034Z,77.6
2018-08-31T21:44:14.350Z,77.3
2018-08-31T21:45:13.157Z,77.2
2018-08-31T21:46:12.467Z,77.1
2018-08-31T21:47:11.688Z,77.2
2018-08-31T21:48:10.890Z,78.2
2018-08-31T21:49:10.201Z,78
2018-08-31T21:50:09.521Z,78.4
2018-08-31T21:51:08.736Z,78.1
2018-08-31T21:52:08.044Z,78.2
2018-08-31T21:53:07.035Z,78.1
2018-08-31T21:54:06.133Z,77.7
2018-08-31T21:55:05.736Z,77.4
2018-08-31T21:56:04.650Z,76.7
2018-08-31T21:57:04.010Z,77.6
2018-08-31T21:58:03.325Z,77.4
2018-08-31T21:59:02.527Z,77.7
2018-08-31T22:00:01.831Z,77.5
2018-08-31T22:01:01.056Z,77.7
2018-08-31T22:02:00.166Z,77.2
2018-08-31T22:02:59.581Z,77.6
2018-08-31T22:03:58.799Z,77.3
2018-08-31T22:04:57.608Z,77.1
2018-08-31T22:05:56.931Z,76.9
2018-08-31T22:06:56.141Z,77.5
2018-08-31T22:07:55.564Z,77.9
2018-08-31T22:08:26.027Z,77.9
2018-08-31T22:08:56.419Z,77.5
2018-08-31T22:09:27.056Z,77.5
2018-08-31T22:09:57.474Z,77.3
2018-08-31T22:10:27.885Z,77.3
2018-08-31T22:11:52.549Z,77.2
2018-08-31T22:12:51.758Z,77.4
2018-08-31T22:13:50.751Z,77.8
2018-08-31T22:14:49.967Z,78.4
2018-08-31T22:16:48.793Z,77.6
2018-08-31T22:17:47.795Z,77.7
2018-08-31T22:18:46.900Z,77.9
2018-08-31T22:19:46.225Z,77.6
2018-08-31T22:20:45.538Z,77.6
2018-08-31T22:21:44.646Z,77.5
2018-08-31T22:22:43.961Z,78
2018-08-31T22:23:43.173Z,78.4
2018-08-31T22:24:42.267Z,78.1
2018-08-31T22:25:41.579Z,77.9
2018-08-31T22:26:40.785Z,78
2018-08-31T22:27:39.706Z,78
2018-08-31T22:28:38.913Z,77.9
2018-08-31T22:29:38.122Z,78.3
2018-08-31T22:30:37.333Z,78.4
2018-08-31T22:31:36.755Z,78.3
2018-08-31T22:32:36.068Z,78.3
2018-08-31T22:33:35.274Z,77.9
2018-08-31T22:34:34.398Z,77.8
2018-08-31T22:35:33.615Z,77.8
2018-08-31T22:36:32.819Z,78.3
2018-08-31T22:37:32.135Z,77.9
2018-08-31T22:38:31.255Z,78.5
2018-08-31T22:39:30.583Z,79.1
2018-08-31T22:40:29.797Z,78.8
2018-08-31T22:42:27.994Z,78.6
2018-08-31T22:43:27.289Z,78.5
2018-08-31T22:44:26.636Z,78.4
2018-08-31T22:46:24.947Z,78.6
2018-08-31T22:47:24.146Z,78.6
2018-08-31T22:48:23.563Z,79.2